Time;durP1;ratioP1;P1;durP2;ratioP2;P2;SDS_P1;SDS_P2;PMS_P1;PMS_P2;Temp;Humidity;BMP_temperature;BMP_pressure;BME280_temperature;BME280_humidity;BME280_pressure;Samples;Min_cycle;Max_cycle;Signal;HPM_P1;HPM_P2
2022/10/04 00:01:09;;;;;;;1.90;1.77;;;;;;;;;;5054292;28;20595;-82
2022/10/04 00:03:43;;;;;;;4.90;3.40;;;;;;;;;;5054240;28;20204;-82
2022/10/04 00:06:18;;;;;;;4.47;3.65;;;;;;;;;;5054124;28;20487;-82
2022/10/04 00:08:50;;;;;;;4.13;2.63;;;;;;;;;;5054126;28;20205;-82
2022/10/04 00:11:23;;;;;;;4.15;3.65;;;;;;;;;;5054144;28;20296;-82
2022/10/04 00:13:54;;;;;;;3.70;2.72;;;;;;;;;;5054072;28;20221;-82
2022/10/04 00:16:26;;;;;;;6.97;4.63;;;;;;;;;;5053798;28;20229;-82
2022/10/04 00:19:23;;;;;;;7.95;5.05;;;;;;;;;;5053704;28;20208;-82
2022/10/04 00:22:19;;;;;;;4.05;3.55;;;;;;;;;;5053971;28;20579;-82
2022/10/04 00:25:19;;;;;;;3.42;3.13;;;;;;;;;;5053468;28;20580;-82
2022/10/04 00:28:31;;;;;;;4.43;1.80;;;;;;;;;;5053590;28;20198;-83
2022/10/04 00:31:23;;;;;;;2.38;1.80;;;;;;;;;;5053560;28;20284;-82
2022/10/04 00:33:58;;;;;;;3.20;1.55;;;;;;;;;;5053539;28;20218;-82
2022/10/04 00:36:54;;;;;;;1.58;1.48;;;;;;;;;;5053657;28;20591;-82
2022/10/04 00:39:43;;;;;;;1.50;1.40;;;;;;;;;;5053109;28;20207;-82
2022/10/04 00:42:38;;;;;;;1.45;1.35;;;;;;;;;;5053662;28;20216;-82
2022/10/04 00:45:13;;;;;;;1.42;1.25;;;;;;;;;;5050772;28;20220;-82
2022/10/04 00:48:17;;;;;;;2.05;1.63;;;;;;;;;;5053119;28;20201;-82
2022/10/04 00:50:50;;;;;;;4.32;1.50;;;;;;;;;;5053018;28;20205;-82
2022/10/04 00:53:45;;;;;;;2.20;2.00;;;;;;;;;;5053142;28;20202;-82
2022/10/04 00:56:16;;;;;;;2.00;1.70;;;;;;;;;;5052647;28;20697;-83
2022/10/04 00:59:10;;;;;;;1.77;1.67;;;;;;;;;;5053082;28;20672;-82
2022/10/04 01:01:37;;;;;;;2.92;2.10;;;;;;;;;;5053292;28;20208;-82
2022/10/04 01:04:12;;;;;;;2.90;2.30;;;;;;;;;;5052814;28;20226;-82
2022/10/04 01:06:40;;;;;;;2.72;2.00;;;;;;;;;;5052922;28;20207;-82
2022/10/04 01:09:11;;;;;;;2.67;2.47;;;;;;;;;;5052261;28;20605;-81
2022/10/04 01:11:44;;;;;;;2.92;2.22;;;;;;;;;;5052834;28;20208;-82
2022/10/04 01:14:20;;;;;;;2.38;2.20;;;;;;;;;;5052736;28;20226;-82
2022/10/04 01:16:47;;;;;;;2.25;2.10;;;;;;;;;;5052237;28;20225;-81
2022/10/04 01:19:36;;;;;;;3.90;2.75;;;;;;;;;;5052438;28;20744;-82
2022/10/04 01:22:29;;;;;;;2.33;2.10;;;;;;;;;;5045902;28;20284;-82
2022/10/04 01:24:58;;;;;;;2.63;2.40;;;;;;;;;;5052587;28;20308;-82
2022/10/04 01:27:35;;;;;;;5.20;3.58;;;;;;;;;;5052313;28;20207;-82
2022/10/04 01:30:06;;;;;;;3.70;2.83;;;;;;;;;;5052245;28;20244;-82
2022/10/04 01:32:34;;;;;;;3.40;2.80;;;;;;;;;;5052724;28;20224;-81
2022/10/04 01:35:01;;;;;;;3.05;2.80;;;;;;;;;;5052286;28;20313;-81
2022/10/04 01:37:30;;;;;;;2.83;2.55;;;;;;;;;;5052186;28;20301;-82
2022/10/04 01:39:57;;;;;;;3.47;2.25;;;;;;;;;;5051874;28;20237;-82
2022/10/04 01:42:29;;;;;;;2.05;1.95;;;;;;;;;;5052332;28;20284;-82
2022/10/04 01:45:04;;;;;;;1.80;1.70;;;;;;;;;;5052366;28;20222;-82
2022/10/04 01:47:35;;;;;;;1.52;1.42;;;;;;;;;;5052417;28;20244;-82
2022/10/04 01:50:06;;;;;;;1.15;1.15;;;;;;;;;;5051928;28;20665;-81
2022/10/04 01:52:37;;;;;;;1.60;1.50;;;;;;;;;;5052337;28;20197;-82
2022/10/04 01:55:09;;;;;;;1.42;1.33;;;;;;;;;;5051261;28;20210;-82
2022/10/04 01:57:41;;;;;;;2.47;1.52;;;;;;;;;;5052097;28;20208;-82
2022/10/04 02:00:12;;;;;;;1.90;1.80;;;;;;;;;;5051686;28;20206;-81
2022/10/04 02:02:44;;;;;;;1.50;1.40;;;;;;;;;;5052309;28;20288;-81
2022/10/04 02:05:16;;;;;;;3.45;2.10;;;;;;;;;;5052115;28;20296;-82
2022/10/04 02:07:45;;;;;;;2.70;2.50;;;;;;;;;;5051897;28;20202;-82
2022/10/04 02:10:20;;;;;;;1.80;1.70;;;;;;;;;;5051618;28;20209;-82
2022/10/04 02:12:50;;;;;;;3.03;2.83;;;;;;;;;;5051959;28;20204;-82
2022/10/04 02:15:20;;;;;;;2.97;2.78;;;;;;;;;;5051763;28;20712;-82
2022/10/04 02:17:48;;;;;;;2.60;2.40;;;;;;;;;;5052012;28;20218;-82
2022/10/04 02:20:18;;;;;;;1.85;1.75;;;;;;;;;;5051701;28;20292;-82
2022/10/04 02:22:50;;;;;;;1.90;1.80;;;;;;;;;;5051993;28;20672;-82
2022/10/04 02:25:20;;;;;;;2.58;2.35;;;;;;;;;;5051785;28;20607;-82
2022/10/04 02:27:48;;;;;;;1.73;1.50;;;;;;;;;;5051783;28;20210;-82
2022/10/04 02:30:15;;;;;;;1.70;1.60;;;;;;;;;;5053655;28;20201;-82
2022/10/04 02:32:59;;;;;;;1.70;1.60;;;;;;;;;;5055533;28;20297;-82
2022/10/04 02:35:28;;;;;;;2.05;1.95;;;;;;;;;;5055385;28;20713;-82
2022/10/04 02:38:08;;;;;;;1.00;1.00;;;;;;;;;;5055310;28;20233;-82
2022/10/04 02:40:41;;;;;;;2.17;1.98;;;;;;;;;;5055635;28;20211;-81
2022/10/04 02:43:13;;;;;;;2.30;2.20;;;;;;;;;;5055399;28;20255;-82
2022/10/04 02:45:48;;;;;;;1.80;1.70;;;;;;;;;;5055227;28;20218;-82
2022/10/04 02:48:35;;;;;;;1.70;1.60;;;;;;;;;;5054930;28;20211;-82
2022/10/04 02:51:15;;;;;;;1.50;1.40;;;;;;;;;;5055228;28;20561;-82
2022/10/04 02:54:00;;;;;;;1.20;1.20;;;;;;;;;;5055278;28;20288;-82
2022/10/04 02:56:27;;;;;;;1.98;1.88;;;;;;;;;;5054979;28;20225;-82
2022/10/04 02:58:56;;;;;;;1.67;1.58;;;;;;;;;;5054772;28;20288;-82
2022/10/04 03:01:37;;;;;;;1.10;1.10;;;;;;;;;;5054673;28;20212;-82
2022/10/04 03:04:04;;;;;;;1.20;1.20;;;;;;;;;;5055043;28;20744;-82
2022/10/04 03:06:33;;;;;;;1.40;1.30;;;;;;;;;;5054974;28;20285;-82
2022/10/04 03:09:05;;;;;;;1.08;1.08;;;;;;;;;;5054602;28;20205;-82
2022/10/04 03:11:35;;;;;;;0.88;0.88;;;;;;;;;;5055143;28;20292;-82
2022/10/04 03:14:07;;;;;;;1.38;1.27;;;;;;;;;;5054781;28;20223;-82
2022/10/04 03:16:37;;;;;;;2.13;1.88;;;;;;;;;;5054006;28;20232;-82
2022/10/04 03:19:06;;;;;;;1.55;1.48;;;;;;;;;;5054516;28;20197;-82
2022/10/04 03:21:34;;;;;;;1.50;1.40;;;;;;;;;;5054409;28;20205;-82
2022/10/04 03:24:05;;;;;;;1.23;1.13;;;;;;;;;;5054678;28;20226;-82
2022/10/04 03:26:37;;;;;;;1.35;1.25;;;;;;;;;;5054360;28;20238;-82
2022/10/04 03:29:09;;;;;;;1.58;1.48;;;;;;;;;;5054660;28;20212;-82
2022/10/04 03:31:39;;;;;;;1.63;1.52;;;;;;;;;;5054657;28;20560;-82
2022/10/04 03:34:14;;;;;;;1.60;1.50;;;;;;;;;;5054435;28;20222;-82
2022/10/04 03:36:42;;;;;;;2.70;2.50;;;;;;;;;;5053246;28;20659;-82
2022/10/04 03:39:12;;;;;;;1.85;1.70;;;;;;;;;;5053851;28;20206;-82
2022/10/04 03:41:41;;;;;;;1.90;1.80;;;;;;;;;;5054032;28;20313;-82
2022/10/04 03:44:12;;;;;;;1.55;1.48;;;;;;;;;;5054262;28;20221;-82
2022/10/04 03:46:39;;;;;;;1.60;1.50;;;;;;;;;;5054233;28;20198;-82
2022/10/04 03:49:09;;;;;;;1.80;1.70;;;;;;;;;;5053880;28;20719;-82
2022/10/04 03:51:36;;;;;;;1.63;1.52;;;;;;;;;;5054064;28;20284;-82
2022/10/04 03:54:05;;;;;;;1.40;1.38;;;;;;;;;;5053904;28;20292;-82
2022/10/04 03:56:36;;;;;;;1.50;1.40;;;;;;;;;;5053992;28;20221;-82
2022/10/04 03:59:05;;;;;;;1.00;1.00;;;;;;;;;;5053877;28;20584;-82
2022/10/04 04:01:38;;;;;;;1.02;1.02;;;;;;;;;;5053725;28;20862;-82
2022/10/04 04:04:17;;;;;;;1.30;1.30;;;;;;;;;;5053557;28;20229;-82
2022/10/04 04:06:52;;;;;;;1.38;1.27;;;;;;;;;;5053880;28;20665;-82
2022/10/04 04:09:24;;;;;;;1.50;1.40;;;;;;;;;;5053572;28;20212;-82
2022/10/04 04:11:56;;;;;;;1.45;1.40;;;;;;;;;;5053801;28;20215;-82
2022/10/04 04:14:26;;;;;;;1.50;1.40;;;;;;;;;;5053448;28;20249;-82
2022/10/04 04:16:55;;;;;;;1.92;1.83;;;;;;;;;;5053662;28;20221;-82
2022/10/04 04:19:24;;;;;;;1.27;1.27;;;;;;;;;;5058956;28;20203;-82
2022/10/04 04:21:54;;;;;;;1.20;1.20;;;;;;;;;;5073480;28;20578;-82
2022/10/04 04:24:27;;;;;;;1.33;1.23;;;;;;;;;;5073319;28;20304;-82
2022/10/04 04:26:59;;;;;;;1.10;1.10;;;;;;;;;;5073512;28;20233;-82
2022/10/04 04:29:32;;;;;;;1.85;1.75;;;;;;;;;;5073550;28;20692;-82
2022/10/04 04:32:02;;;;;;;1.73;1.63;;;;;;;;;;5073723;28;20559;-82
2022/10/04 04:34:51;;;;;;;1.80;1.67;;;;;;;;;;5073511;28;20750;-82
2022/10/04 04:37:20;;;;;;;2.38;2.25;;;;;;;;;;5072911;28;20235;-82
2022/10/04 04:39:53;;;;;;;2.78;2.58;;;;;;;;;;5071332;28;20665;-82
2022/10/04 04:42:31;;;;;;;3.00;2.80;;;;;;;;;;5053338;28;20200;-82
2022/10/04 04:45:01;;;;;;;2.83;2.63;;;;;;;;;;5053404;28;20228;-82
2022/10/04 04:47:32;;;;;;;2.42;2.33;;;;;;;;;;5053567;28;20198;-82
2022/10/04 04:50:08;;;;;;;3.28;1.85;;;;;;;;;;5053847;28;20205;-82
2022/10/04 04:52:36;;;;;;;1.77;1.67;;;;;;;;;;5059332;28;20201;-82
2022/10/04 04:55:06;;;;;;;1.52;1.42;;;;;;;;;;5054601;28;20220;-82
2022/10/04 04:57:34;;;;;;;1.67;1.58;;;;;;;;;;5054265;28;20232;-82
2022/10/04 05:00:03;;;;;;;1.40;1.30;;;;;;;;;;5054481;28;20304;-82
2022/10/04 05:02:34;;;;;;;1.70;1.60;;;;;;;;;;5055930;28;20214;-82
2022/10/04 05:05:20;;;;;;;1.60;1.50;;;;;;;;;;5055899;28;20232;-82
2022/10/04 05:07:48;;;;;;;1.70;1.60;;;;;;;;;;5065632;28;20281;-82
2022/10/04 05:10:31;;;;;;;1.42;1.33;;;;;;;;;;5069648;28;20285;-83
2022/10/04 05:13:01;;;;;;;1.98;1.88;;;;;;;;;;5055068;28;20209;-82
2022/10/04 05:15:32;;;;;;;1.65;1.55;;;;;;;;;;5054184;28;20226;-82
2022/10/04 05:18:00;;;;;;;1.73;1.63;;;;;;;;;;5054528;28;20229;-83
2022/10/04 05:20:28;;;;;;;1.80;1.70;;;;;;;;;;5054450;28;20284;-83
2022/10/04 05:22:56;;;;;;;1.50;1.40;;;;;;;;;;5054660;28;20200;-83
2022/10/04 05:25:29;;;;;;;1.60;1.50;;;;;;;;;;5054405;28;20286;-83
2022/10/04 05:27:58;;;;;;;1.80;1.70;;;;;;;;;;5054554;28;20400;-82
2022/10/04 05:30:46;;;;;;;2.20;2.05;;;;;;;;;;5054275;28;20669;-83
2022/10/04 05:33:18;;;;;;;2.33;2.22;;;;;;;;;;5054272;28;20202;-83
2022/10/04 05:36:06;;;;;;;1.88;1.77;;;;;;;;;;5054116;28;20221;-83
2022/10/04 05:38:39;;;;;;;1.70;1.60;;;;;;;;;;5054040;28;20222;-82
2022/10/04 05:41:09;;;;;;;1.67;1.58;;;;;;;;;;5053569;28;20209;-82
2022/10/04 05:43:44;;;;;;;1.83;1.73;;;;;;;;;;5054094;28;20206;-82
2022/10/04 05:46:20;;;;;;;1.70;1.60;;;;;;;;;;5054721;28;20197;-82
2022/10/04 05:48:55;;;;;;;1.80;1.70;;;;;;;;;;5054697;28;20197;-82
2022/10/04 05:51:26;;;;;;;1.95;1.85;;;;;;;;;;5054941;28;20201;-83
2022/10/04 05:53:55;;;;;;;1.60;1.50;;;;;;;;;;5053718;28;20700;-81
2022/10/04 05:57:00;;;;;;;2.08;1.98;;;;;;;;;;5054031;28;20209;-82
2022/10/04 05:59:51;;;;;;;2.00;1.90;;;;;;;;;;5053220;28;20224;-82
2022/10/04 06:02:30;;;;;;;1.63;1.52;;;;;;;;;;5054885;28;20297;-80
2022/10/04 06:05:10;;;;;;;1.92;1.83;;;;;;;;;;5057806;28;20316;-82
2022/10/04 06:07:42;;;;;;;2.15;2.05;;;;;;;;;;5058353;28;20201;-81
2022/10/04 06:10:32;;;;;;;2.58;2.38;;;;;;;;;;5057720;28;20197;-82
2022/10/04 06:13:07;;;;;;;3.20;2.95;;;;;;;;;;5056532;28;20264;-82
2022/10/04 06:16:01;;;;;;;2.90;2.70;;;;;;;;;;5055752;28;20221;-80
2022/10/04 06:18:58;;;;;;;3.08;2.88;;;;;;;;;;5053078;28;20309;-82
2022/10/04 06:21:27;;;;;;;2.55;2.35;;;;;;;;;;5037784;28;20206;-82
2022/10/04 06:24:01;;;;;;;2.95;2.75;;;;;;;;;;5037714;28;20226;-82
2022/10/04 06:26:34;;;;;;;2.50;2.30;;;;;;;;;;5037985;28;20206;-82
2022/10/04 06:29:05;;;;;;;2.60;2.40;;;;;;;;;;5036861;28;20579;-81
2022/10/04 06:32:02;;;;;;;2.55;2.35;;;;;;;;;;5051371;28;20207;-81
2022/10/04 06:35:07;;;;;;;1.90;1.80;;;;;;;;;;5076624;28;20223;-82
2022/10/04 06:38:12;;;;;;;2.10;1.90;;;;;;;;;;5057196;28;20207;-81
2022/10/04 06:41:19;;;;;;;2.38;2.17;;;;;;;;;;5067095;28;20205;-81
2022/10/04 06:44:01;;;;;;;1.70;1.60;;;;;;;;;;5054387;28;20901;-81
2022/10/04 06:46:35;;;;;;;2.75;2.55;;;;;;;;;;5055464;28;20268;-82
2022/10/04 06:49:31;;;;;;;3.63;2.85;;;;;;;;;;5055175;28;20217;-82
2022/10/04 06:52:34;;;;;;;2.58;2.38;;;;;;;;;;5055900;28;20289;-82
2022/10/04 06:55:38;;;;;;;1.90;1.80;;;;;;;;;;5055988;28;20221;-81
2022/10/04 06:58:32;;;;;;;2.53;2.33;;;;;;;;;;5055195;28;20226;-82
2022/10/04 07:01:04;;;;;;;2.35;2.25;;;;;;;;;;5056680;28;20206;-81
2022/10/04 07:03:39;;;;;;;2.40;2.20;;;;;;;;;;5055639;28;20200;-81
2022/10/04 07:06:10;;;;;;;1.90;1.80;;;;;;;;;;5056120;28;20201;-81
2022/10/04 07:08:42;;;;;;;2.40;2.20;;;;;;;;;;5067016;28;20684;-82
2022/10/04 07:11:15;;;;;;;2.25;2.05;;;;;;;;;;5062513;28;20588;-81
2022/10/04 07:13:49;;;;;;;2.58;2.38;;;;;;;;;;5055150;28;20300;-81
2022/10/04 07:16:39;;;;;;;2.40;2.20;;;;;;;;;;5055136;28;20666;-80
2022/10/04 07:19:23;;;;;;;2.55;2.35;;;;;;;;;;5049771;28;20226;-81
2022/10/04 07:21:59;;;;;;;2.63;2.42;;;;;;;;;;5055461;28;20198;-81
2022/10/04 07:24:39;;;;;;;4.65;4.25;;;;;;;;;;5055131;28;20225;-81
2022/10/04 07:27:10;;;;;;;3.92;3.55;;;;;;;;;;5054808;28;20206;-81
2022/10/04 07:29:40;;;;;;;2.92;2.65;;;;;;;;;;5055079;28;20581;-81
2022/10/04 07:32:13;;;;;;;3.75;3.45;;;;;;;;;;5055010;28;20237;-81
2022/10/04 07:34:47;;;;;;;3.90;3.50;;;;;;;;;;5088186;22;20233;-81
2022/10/04 07:37:16;;;;;;;4.20;3.80;;;;;;;;;;5071312;28;20190;-80
2022/10/04 07:39:51;;;;;;;3.30;3.10;;;;;;;;;;5070562;28;20249;-82
2022/10/04 07:42:28;;;;;;;3.83;3.53;;;;;;;;;;5077636;28;20232;-80
2022/10/04 07:45:11;;;;;;;3.58;3.00;;;;;;;;;;5086807;28;20372;-80
2022/10/04 07:47:38;;;;;;;2.72;2.53;;;;;;;;;;5092715;28;20228;-82
2022/10/04 07:50:25;;;;;;;3.28;2.97;;;;;;;;;;5093618;28;20197;-83
2022/10/04 07:53:01;;;;;;;2.80;2.60;;;;;;;;;;5092188;28;20228;-80
2022/10/04 07:55:32;;;;;;;4.07;3.67;;;;;;;;;;5084618;28;20311;-83
2022/10/04 07:58:15;;;;;;;5.20;4.30;;;;;;;;;;5085347;28;20193;-82
2022/10/04 08:00:50;;;;;;;5.28;4.30;;;;;;;;;;5078878;28;20316;-81
2022/10/04 08:03:50;;;;;;;7.40;5.65;;;;;;;;;;5069530;28;20232;-82
2022/10/04 08:06:23;;;;;;;4.13;3.72;;;;;;;;;;5064339;28;20214;-82
2022/10/04 08:09:21;;;;;;;5.00;4.60;;;;;;;;;;5062890;28;20284;-82
2022/10/04 08:12:00;;;;;;;3.97;3.67;;;;;;;;;;5083918;28;20205;-82
2022/10/04 08:14:44;;;;;;;3.88;3.28;;;;;;;;;;5085488;28;20669;-81
2022/10/04 08:17:21;;;;;;;3.85;3.55;;;;;;;;;;5086066;28;20300;-83
2022/10/04 08:20:01;;;;;;;3.10;2.80;;;;;;;;;;5085275;28;20252;-83
2022/10/04 08:22:39;;;;;;;3.55;3.25;;;;;;;;;;5086448;28;20264;-83
2022/10/04 08:25:16;;;;;;;2.90;2.55;;;;;;;;;;5085574;28;20244;-83
2022/10/04 08:30:58;;;;;;;4.45;2.95;;;;;;;;;;5080332;28;20195;-82
2022/10/04 08:33:43;;;;;;;4.07;3.25;;;;;;;;;;5083806;28;20223;-83
2022/10/04 08:36:24;;;;;;;5.05;3.97;;;;;;;;;;5083086;28;20296;-83
2022/10/04 08:38:56;;;;;;;5.00;4.15;;;;;;;;;;5084591;28;20284;-83
2022/10/04 08:42:04;;;;;;;4.32;3.55;;;;;;;;;;5084534;28;20827;-82
2022/10/04 08:45:14;;;;;;;4.60;4.20;;;;;;;;;;5085123;28;20235;-83
2022/10/04 08:48:58;;;;;;;6.10;4.57;;;;;;;;;;5083799;28;20226;-82
2022/10/04 08:52:21;;;;;;;4.47;3.95;;;;;;;;;;5003127;28;20262;-84
2022/10/04 08:55:36;;;;;;;4.88;4.32;;;;;;;;;;5003324;28;20307;-82
2022/10/04 08:58:39;;;;;;;3.90;3.60;;;;;;;;;;5058778;28;20236;-83
2022/10/04 09:02:00;;;;;;;6.07;3.95;;;;;;;;;;5046890;28;20232;-82
2022/10/04 09:05:18;;;;;;;5.75;4.22;;;;;;;;;;5043376;28;20307;-83
2022/10/04 09:08:40;;;;;;;4.57;4.07;;;;;;;;;;5030824;28;20214;-83
2022/10/04 09:11:30;;;;;;;4.35;3.95;;;;;;;;;;5078168;28;20744;-83
2022/10/04 09:14:34;;;;;;;4.25;3.85;;;;;;;;;;5085265;28;20288;-80
2022/10/04 09:17:18;;;;;;;5.57;4.03;;;;;;;;;;5083200;28;20196;-83
2022/10/04 09:19:56;;;;;;;6.43;4.13;;;;;;;;;;5082752;28;20284;-82
2022/10/04 09:22:46;;;;;;;8.88;3.95;;;;;;;;;;5079101;28;20200;-82
2022/10/04 09:25:32;;;;;;;4.80;3.50;;;;;;;;;;5080772;28;20596;-83
2022/10/04 09:28:23;;;;;;;4.38;3.97;;;;;;;;;;5080539;28;20229;-81
2022/10/04 09:31:13;;;;;;;5.57;3.92;;;;;;;;;;5078471;28;20209;-83
2022/10/04 09:34:16;;;;;;;4.40;3.35;;;;;;;;;;5079036;28;20255;-82
2022/10/04 09:37:08;;;;;;;4.13;3.78;;;;;;;;;;5078846;28;20196;-81
2022/10/04 09:40:49;;;;;;;4.90;4.40;;;;;;;;;;5076691;28;20683;-82
2022/10/04 09:43:35;;;;;;;4.60;3.95;;;;;;;;;;5077521;28;20209;-83
2022/10/04 09:46:18;;;;;;;4.10;3.70;;;;;;;;;;5058431;28;20241;-82
2022/10/04 09:48:57;;;;;;;4.15;3.75;;;;;;;;;;5060049;28;20249;-82
2022/10/04 09:52:01;;;;;;;3.10;2.80;;;;;;;;;;5059904;28;20268;-84
2022/10/04 09:55:08;;;;;;;3.35;3.05;;;;;;;;;;5062171;28;20212;-83
2022/10/04 09:57:55;;;;;;;4.88;3.47;;;;;;;;;;5062238;28;20216;-84
2022/10/04 10:00:23;;;;;;;5.57;3.22;;;;;;;;;;5059600;28;20673;-83
2022/10/04 10:03:27;;;;;;;4.72;3.33;;;;;;;;;;5060024;28;20205;-83
2022/10/04 10:06:40;;;;;;;5.50;3.33;;;;;;;;;;5059605;28;20232;-82
2022/10/04 10:15:27;;;;;;;4.05;3.35;;;;;;;;;;5069337;28;20313;-84
2022/10/04 10:18:01;;;;;;;3.10;2.38;;;;;;;;;;5079322;28;20287;-84
2022/10/04 10:20:45;;;;;;;3.97;2.70;;;;;;;;;;5078970;28;20227;-86
2022/10/04 10:24:23;;;;;;;3.42;3.13;;;;;;;;;;5076405;28;20287;-82
2022/10/04 10:27:02;;;;;;;6.13;3.88;;;;;;;;;;5041491;28;20205;-84
2022/10/04 10:30:13;;;;;;;5.93;3.00;;;;;;;;;;5076079;28;20202;-84
2022/10/04 10:33:36;;;;;;;4.35;2.70;;;;;;;;;;5078128;28;20201;-83
2022/10/04 10:36:24;;;;;;;5.22;3.78;;;;;;;;;;5074990;28;20197;-84
2022/10/04 10:39:15;;;;;;;3.80;3.20;;;;;;;;;;5075142;28;20295;-83
2022/10/04 10:42:02;;;;;;;3.85;2.92;;;;;;;;;;5079089;28;20220;-86
2022/10/04 10:45:08;;;;;;;3.42;2.50;;;;;;;;;;5076754;28;20220;-84
2022/10/04 10:47:43;;;;;;;3.60;2.90;;;;;;;;;;5075964;28;20216;-84
2022/10/04 10:50:58;;;;;;;3.53;3.05;;;;;;;;;;5075374;28;20196;-85
2022/10/04 10:54:15;;;;;;;4.57;3.10;;;;;;;;;;5078676;28;20205;-83
2022/10/04 10:57:05;;;;;;;2.78;2.50;;;;;;;;;;5056722;28;20236;-84
2022/10/04 11:00:17;;;;;;;3.78;3.17;;;;;;;;;;5077521;28;20197;-83
2022/10/04 11:03:31;;;;;;;3.33;2.40;;;;;;;;;;5077984;28;20205;-83
2022/10/04 11:07:01;;;;;;;2.92;2.35;;;;;;;;;;5077807;28;20248;-84
2022/10/04 11:09:45;;;;;;;4.22;2.47;;;;;;;;;;5044373;28;20263;-85
2022/10/04 11:12:43;;;;;;;2.95;2.05;;;;;;;;;;5056884;28;20684;-83
2022/10/04 11:15:50;;;;;;;6.03;2.10;;;;;;;;;;5020174;28;20717;-81
2022/10/04 11:18:57;;;;;;;2.97;2.72;;;;;;;;;;5055845;28;20607;-82
2022/10/04 11:22:48;;;;;;;4.45;2.92;;;;;;;;;;5056444;28;20279;-83
2022/10/04 11:25:58;;;;;;;2.90;2.15;;;;;;;;;;4956033;28;20254;-84
2022/10/04 11:28:37;;;;;;;2.15;1.90;;;;;;;;;;4980926;28;20204;-83
2022/10/04 11:31:58;;;;;;;1.95;1.85;;;;;;;;;;5059955;28;20205;-85
2022/10/04 11:34:58;;;;;;;3.97;2.60;;;;;;;;;;5057494;28;20709;-83
2022/10/04 11:37:46;;;;;;;3.33;2.67;;;;;;;;;;5056690;28;20205;-83
2022/10/04 11:40:38;;;;;;;6.03;3.63;;;;;;;;;;5062351;28;20213;-82
2022/10/04 11:43:31;;;;;;;3.17;2.33;;;;;;;;;;5078051;28;20212;-83
2022/10/04 11:46:17;;;;;;;5.88;3.17;;;;;;;;;;5057966;28;20275;-84
2022/10/04 11:49:00;;;;;;;3.60;2.55;;;;;;;;;;5058783;28;20197;-82
2022/10/04 11:52:19;;;;;;;4.53;3.03;;;;;;;;;;5057686;28;20178;-81
2022/10/04 11:55:35;;;;;;;4.78;3.72;;;;;;;;;;5058123;28;20309;-82
2022/10/04 11:58:09;;;;;;;3.20;2.78;;;;;;;;;;5054378;28;20206;-83
2022/10/04 12:00:59;;;;;;;2.70;2.50;;;;;;;;;;5055895;28;20200;-83
2022/10/04 12:04:15;;;;;;;2.78;2.50;;;;;;;;;;5058644;28;20248;-85
2022/10/04 12:06:56;;;;;;;4.57;3.25;;;;;;;;;;5056090;28;20568;-81
2022/10/04 12:09:29;;;;;;;4.22;2.78;;;;;;;;;;5054590;28;20206;-82
2022/10/04 12:12:37;;;;;;;3.50;2.70;;;;;;;;;;5075284;28;20208;-80
2022/10/04 12:15:41;;;;;;;2.63;2.20;;;;;;;;;;5076385;28;20256;-82
2022/10/04 12:18:53;;;;;;;3.03;2.33;;;;;;;;;;5075293;28;20196;-82
2022/10/04 12:21:57;;;;;;;2.55;2.20;;;;;;;;;;5075372;28;20603;-82
2022/10/04 12:25:03;;;;;;;2.67;1.77;;;;;;;;;;5075660;28;20229;-82
2022/10/04 12:28:14;;;;;;;3.15;2.72;;;;;;;;;;5078846;28;20209;-82
2022/10/04 12:31:02;;;;;;;3.03;2.10;;;;;;;;;;5076917;28;20232;-81
2022/10/04 12:33:35;;;;;;;3.10;2.40;;;;;;;;;;5074950;28;20204;-82
2022/10/04 12:36:23;;;;;;;2.55;2.13;;;;;;;;;;5073401;28;20208;-82
2022/10/04 12:39:04;;;;;;;1.60;1.50;;;;;;;;;;5075241;28;20205;-82
2022/10/04 12:41:43;;;;;;;2.42;2.08;;;;;;;;;;5078623;28;20221;-82
2022/10/04 12:44:29;;;;;;;2.83;2.15;;;;;;;;;;5080641;28;20243;-82
2022/10/04 12:47:22;;;;;;;3.60;1.83;;;;;;;;;;5082950;28;20268;-82
2022/10/04 12:49:56;;;;;;;1.98;1.60;;;;;;;;;;5078032;28;20272;-84
2022/10/04 12:52:26;;;;;;;2.35;1.63;;;;;;;;;;5081749;28;20224;-83
2022/10/04 12:54:59;;;;;;;2.72;1.95;;;;;;;;;;5077726;28;20903;-82
2022/10/04 12:57:41;;;;;;;1.77;1.60;;;;;;;;;;5080249;28;20228;-82
2022/10/04 13:00:19;;;;;;;2.22;2.03;;;;;;;;;;5074438;28;20675;-82
2022/10/04 13:03:09;;;;;;;1.63;1.50;;;;;;;;;;5073711;28;20699;-82
2022/10/04 13:05:48;;;;;;;2.45;1.80;;;;;;;;;;5076687;28;20712;-82
2022/10/04 13:08:24;;;;;;;2.45;2.08;;;;;;;;;;5075571;28;20211;-81
2022/10/04 13:11:28;;;;;;;3.75;2.05;;;;;;;;;;5075079;28;20193;-81
2022/10/04 13:14:34;;;;;;;1.70;1.60;;;;;;;;;;5074162;28;20225;-81
2022/10/04 13:17:15;;;;;;;1.85;1.60;;;;;;;;;;5075644;28;20205;-82
2022/10/04 13:19:51;;;;;;;1.50;1.40;;;;;;;;;;5074676;28;20634;-83
2022/10/04 13:22:47;;;;;;;1.77;1.50;;;;;;;;;;5072909;28;20224;-82
2022/10/04 13:25:38;;;;;;;2.00;1.80;;;;;;;;;;5053289;28;20752;-82
2022/10/04 13:28:19;;;;;;;2.13;1.58;;;;;;;;;;5054164;28;20223;-82
2022/10/04 13:30:49;;;;;;;1.90;1.70;;;;;;;;;;5052899;28;20197;-82
2022/10/04 13:33:25;;;;;;;3.88;1.55;;;;;;;;;;5053965;28;20239;-83
2022/10/04 13:35:59;;;;;;;1.95;1.52;;;;;;;;;;5128626;22;20227;-86
2022/10/04 13:39:21;;;;;;;1.58;1.40;;;;;;;;;;5113352;28;20219;-87
2022/10/04 13:42:05;;;;;;;1.38;1.15;;;;;;;;;;5105867;28;20223;-88
2022/10/04 13:45:35;;;;;;;2.45;2.25;;;;;;;;;;5113787;28;20178;-88
2022/10/04 13:48:43;;;;;;;1.52;1.30;;;;;;;;;;5017225;28;20716;-87
2022/10/04 13:51:47;;;;;;;2.28;1.80;;;;;;;;;;4971996;28;20215;-87
2022/10/04 13:57:28;;;;;;;1.88;1.52;;;;;;;;;;5113610;28;20219;-87
2022/10/04 14:00:04;;;;;;;1.48;1.38;;;;;;;;;;5113676;28;20236;-87
2022/10/04 14:03:16;;;;;;;1.27;1.17;;;;;;;;;;5113204;28;20246;-87
2022/10/04 14:06:27;;;;;;;1.42;1.20;;;;;;;;;;5113349;28;20215;-87
2022/10/04 14:09:28;;;;;;;6.57;2.90;;;;;;;;;;5086529;28;20211;-87
2022/10/04 14:12:18;;;;;;;6.15;2.83;;;;;;;;;;5112933;28;20282;-87
2022/10/04 14:15:15;;;;;;;2.88;1.92;;;;;;;;;;5113245;28;20696;-87
2022/10/04 14:18:35;;;;;;;1.50;1.40;;;;;;;;;;5113232;28;20682;-87
2022/10/04 14:21:31;;;;;;;2.22;1.20;;;;;;;;;;5100318;28;20279;-87
2022/10/04 14:25:08;;;;;;;1.33;1.23;;;;;;;;;;5085273;28;20740;-87
2022/10/04 14:28:03;;;;;;;3.33;1.42;;;;;;;;;;5056943;28;20320;-88
2022/10/04 14:30:43;;;;;;;1.40;1.30;;;;;;;;;;5118433;28;20202;-86
2022/10/04 14:34:10;;;;;;;2.53;1.33;;;;;;;;;;5118673;28;20295;-89
2022/10/04 14:37:11;;;;;;;1.60;1.50;;;;;;;;;;5104521;28;20651;-88
2022/10/04 14:40:20;;;;;;;1.30;1.20;;;;;;;;;;5116913;28;20187;-86
2022/10/04 14:43:09;;;;;;;1.20;1.10;;;;;;;;;;5097146;28;20204;-86
2022/10/04 14:45:44;;;;;;;1.25;1.17;;;;;;;;;;5097326;28;20204;-87
2022/10/04 14:48:38;;;;;;;1.40;1.20;;;;;;;;;;5096098;28;20302;-87
2022/10/04 14:51:36;;;;;;;2.38;1.80;;;;;;;;;;5096808;28;20198;-88
2022/10/04 14:54:10;;;;;;;1.70;1.60;;;;;;;;;;5096870;28;20192;-88
2022/10/04 14:56:58;;;;;;;1.50;1.40;;;;;;;;;;5097871;28;20188;-87
2022/10/04 14:59:53;;;;;;;1.02;1.02;;;;;;;;;;5096814;28;20219;-88
2022/10/04 15:02:58;;;;;;;1.30;1.20;;;;;;;;;;5086209;28;20694;-87
2022/10/04 15:05:34;;;;;;;2.58;1.33;;;;;;;;;;5096954;28;20207;-86
2022/10/04 15:08:28;;;;;;;1.20;1.10;;;;;;;;;;5096541;28;20219;-88
2022/10/04 15:11:01;;;;;;;1.35;1.25;;;;;;;;;;5096817;28;20291;-90
2022/10/04 15:13:33;;;;;;;1.27;1.10;;;;;;;;;;5096854;28;20196;-88
2022/10/04 15:16:21;;;;;;;2.15;1.80;;;;;;;;;;5097078;28;20216;-87
2022/10/04 15:18:56;;;;;;;1.13;0.95;;;;;;;;;;5096252;28;20224;-87
2022/10/04 15:21:42;;;;;;;1.27;1.17;;;;;;;;;;5096165;28;20188;-88
2022/10/04 15:24:29;;;;;;;1.20;1.10;;;;;;;;;;5096011;28;20209;-88
2022/10/04 15:27:49;;;;;;;1.10;1.00;;;;;;;;;;5095877;28;20614;-91
2022/10/04 15:30:29;;;;;;;1.20;1.13;;;;;;;;;;5095885;28;20198;-88
2022/10/04 15:33:19;;;;;;;1.55;1.10;;;;;;;;;;5095712;28;20180;-85
2022/10/04 15:36:33;;;;;;;1.17;1.08;;;;;;;;;;5094749;28;20215;-87
2022/10/04 15:39:05;;;;;;;1.50;1.10;;;;;;;;;;5065364;28;20231;-86
2022/10/04 15:41:40;;;;;;;1.30;1.17;;;;;;;;;;5096415;28;20184;-88
2022/10/04 15:45:09;;;;;;;1.13;1.10;;;;;;;;;;5095676;28;20243;-87
2022/10/04 15:48:10;;;;;;;1.40;1.30;;;;;;;;;;5083798;28;20224;-89
2022/10/04 15:50:52;;;;;;;0.90;0.90;;;;;;;;;;5098935;28;20218;-86
2022/10/04 15:53:47;;;;;;;1.23;1.20;;;;;;;;;;5096345;28;20284;-87
2022/10/04 15:56:33;;;;;;;2.90;1.30;;;;;;;;;;5096582;28;20287;-89
2022/10/04 15:59:27;;;;;;;2.15;1.42;;;;;;;;;;5097755;28;20220;-91
2022/10/04 16:02:43;;;;;;;2.53;1.27;;;;;;;;;;5096143;28;20214;-86
2022/10/04 16:05:26;;;;;;;1.00;1.00;;;;;;;;;;5084958;28;20207;-86
2022/10/04 16:08:14;;;;;;;1.17;1.10;;;;;;;;;;5101130;28;20227;-85
2022/10/04 16:11:21;;;;;;;1.00;1.00;;;;;;;;;;5102283;28;20271;-85
2022/10/04 16:14:19;;;;;;;1.17;1.10;;;;;;;;;;5101244;28;20200;-85
2022/10/04 16:17:47;;;;;;;0.82;0.82;;;;;;;;;;5102449;28;20543;-85
2022/10/04 16:20:54;;;;;;;1.20;1.10;;;;;;;;;;5101188;28;20192;-85
2022/10/04 16:23:31;;;;;;;1.13;1.02;;;;;;;;;;5093004;28;20253;-84
2022/10/04 16:26:03;;;;;;;0.82;0.82;;;;;;;;;;5102922;28;20267;-84
2022/10/04 16:29:03;;;;;;;1.38;0.80;;;;;;;;;;5105285;28;20216;-85
2022/10/04 16:32:03;;;;;;;1.00;1.00;;;;;;;;;;5108214;28;20185;-84
2022/10/04 16:34:51;;;;;;;1.30;1.20;;;;;;;;;;5125404;28;20203;-83
2022/10/04 16:37:33;;;;;;;1.00;1.00;;;;;;;;;;5126706;28;20214;-83
2022/10/04 16:40:16;;;;;;;1.20;1.10;;;;;;;;;;5126228;28;20207;-85
2022/10/04 16:43:02;;;;;;;2.05;1.30;;;;;;;;;;5126406;28;20208;-85